Airfield :
LOGIN :

Register | Disclaimer

   EN    FR    IT 

 










Legend :    VFR   Marginal VFR   IFR   Intensive IFR   Very Intensive IFR
Visi :
Ceiling :
>= 8 km
>= 3000ft
5 to 8 km
1000 to 3000 ft
1500m to 5 km
500 to 1000 ft
800 to 1500m
200 to 500 ft
< 800m
< 200 ft
Symbols :   Thunderstorms  Fog  Heavy snow  Heavy precipitations  Wind > 20 kt
SIGMETs :     Misc.  Thunderstorms  Icing  Turbulence  Mountain Waves  Volcanic Ashes







- Airport Elevation : 74 ft
- IATA code : EIN


EHEH - Eindhoven

CURRENT METAR :
  • 171858Z AUTO 20008KT 170V230 9999 FEW010 19/18 Q1014 BLU 20010KT 9999 SCT020

EXPIRED METARs :
  • 171846Z AUTO 19009KT 9999 SCT012 SCT015 19/18 Q1014 GRN 20010KT 9999 SCT015 BKN025 TEMPO FEW008 SCT013 BKN016
  • 171829Z AUTO 19009KT 160V230 9999 FEW012 20/18 Q1014 BLU 20010KT 9999 SCT015 BKN025 TEMPO FEW008 SCT013 BKN016
  • 171819Z AUTO 19010KT 160V230 9999 FEW013 20/18 Q1014 BLU 20010KT 9999 SCT015 BKN025 TEMPO FEW008 SCT013 BKN016
  • 171755Z AUTO 20009KT 160V240 9999 FEW011 BKN014 BKN051 20/18 Q1014 GRN 20010KT 9999 SCT015 BKN025 TEMPO FEW008 SCT013 BKN016
  • 171744Z AUTO 20009KT 170V230 9999 FEW011 SCT014 BKN016 20/18 Q1014 GRN 20010KT 9999 BKN018 OVC025 TEMPO FEW008 SCT015CB BKN020
  • 171737Z AUTO 19010KT 160V220 9999 FEW011 SCT016 OVC095 20/18 Q1014 WHT 20010KT 9999 BKN018 OVC025 TEMPO FEW008 SCT015CB BKN020
  • 171725Z AUTO 19010KT 160V220 9999 FEW012 SCT069 OVC086 20/18 Q1014 BLU 20010KT 9999 BKN018 OVC025 TEMPO FEW008 SCT015CB BKN020
  • 171707Z AUTO 19011KT 160V220 9999 FEW012 SCT084 BKN090 20/17 Q1014 BLU 20010KT 9999 BKN018 OVC025 TEMPO FEW008 SCT015CB BKN020
  • 171655Z AUTO 20011KT 170V230 9999 FEW013 OVC016 20/17 Q1014 WHT 20010KT 9999 BKN018 OVC025 TEMPO FEW008 SCT015CB BKN020
  • 171625Z AUTO 20010KT 170V230 9999 BKN019 OVC022 21/17 Q1014 WHT 20010KT 9999 BKN018 OVC025 TEMPO FEW008 SCT015CB BKN020

TAF TAF EHEH
Valid from the 17 at 18:00 until the 19 at 00:00 UTC


171705Z 1718/1824 22010KT 9999 FEW010 SCT015 BKN025
TEMPO 1718/1719 FEW009 SCT015CB BN020
BECMG 1719/1721 18005KT SCT020
TEMPO 1801/1810 4500 SHRA RA SCT015CB BKN020
PROB40 1803/1807 3000 TSRA SCT012CB BKN020
BECMG 1806/1808 26010KT
PROB30
TEMPO 1811/1819 FEW015CB SCT020
No reported NOTAMs for that airfield.



MET'MAP, your aeronautical weather chart ! - Copyright ORBIFLY December 2007 - Disclaimer

ORBIFLY MET'MAP TEAM :

Programming & Development : Alexandra Zaïnal
Concept & Development : Baudouin d'Aumeries
Co-Development & Prog : Marc-Olivier Méhu
Technical & hardware support : Manuel Goepfert

Contact : metmap@orbifly.com




SOURCES & CREDITS :

   NOAA